Homewood, Illinois
Current Conditions -  °F | °C
As of 10:15 PM on Sunday 21 Dec 2014 (Local Time) from KIGQ Reporting Station
Haze Haze  
Wind Chill: -5°   Ceiling: Unl
Heat Index:   Visibility: 5mi
Dew Point: -2°   Wind: 13mph
Humidity: 85%   Direction: 150°SSE
Pressure: 30.05"   Gusts: NA
Location:  41.56°N, 87.66°W
Report Text: KIGQ 220415Z AUTO 15011KT 5SM BR SCT037 00/M02 A3005 RMK AO2 T00001023
Loading
Personal Weather Stations






























Interactive Weather Map New forecast layout! Learn more

10-Day Weather Forecast

Advertisements
Track Severe Weather on mobile